Time;durP1;ratioP1;P1;durP2;ratioP2;P2;SDS_P1;SDS_P2;PMS_P1;PMS_P2;Temp;Humidity;BMP_temperature;BMP_pressure;BME280_temperature;BME280_humidity;BME280_pressure;Samples;Min_cycle;Max_cycle;Signal;HPM_P1;HPM_P2
2024/03/30 00:01:24;;;;;;;3.78;1.73;;;11.10;86.20;;;;;;5057792;28;20044;-75
2024/03/30 00:03:52;;;;;;;4.13;1.85;;;11.10;86.20;;;;;;5053783;28;20017;-74
2024/03/30 00:06:18;;;;;;;5.35;1.92;;;11.10;86.20;;;;;;5055963;28;20047;-75
2024/03/30 00:08:43;;;;;;;3.38;1.70;;;11.10;86.30;;;;;;5058353;28;20037;-76
2024/03/30 00:11:09;;;;;;;3.13;1.80;;;11.10;86.40;;;;;;5055714;28;20024;-72
2024/03/30 00:13:35;;;;;;;3.72;1.65;;;11.10;86.40;;;;;;5060052;28;20037;-76
2024/03/30 00:16:07;;;;;;;4.18;1.77;;;11.10;86.40;;;;;;5058698;28;20141;-76
2024/03/30 00:18:33;;;;;;;3.30;1.92;;;11.10;86.50;;;;;;5070714;28;20033;-76
2024/03/30 00:20:59;;;;;;;3.20;1.63;;;11.10;86.60;;;;;;5055522;28;20093;-75
2024/03/30 00:23:25;;;;;;;4.10;1.60;;;11.10;86.60;;;;;;5059152;28;20033;-77
2024/03/30 00:25:52;;;;;;;4.43;1.90;;;11.10;86.60;;;;;;5056495;28;20036;-76
2024/03/30 00:28:18;;;;;;;4.75;2.00;;;11.10;86.60;;;;;;5057025;28;20025;-76
2024/03/30 00:30:45;;;;;;;3.55;1.90;;;11.10;86.80;;;;;;5059511;28;20035;-76
2024/03/30 00:33:12;;;;;;;3.45;1.95;;;11.10;86.90;;;;;;5050028;28;20033;-75
2024/03/30 00:35:38;;;;;;;3.70;2.10;;;11.10;87.20;;;;;;5058195;28;20745;-77
2024/03/30 00:38:04;;;;;;;4.32;1.85;;;11.10;87.20;;;;;;5047330;28;20120;-76
2024/03/30 00:40:30;;;;;;;4.90;2.08;;;11.10;87.50;;;;;;5058967;28;20033;-76
2024/03/30 00:42:56;;;;;;;5.53;1.98;;;11.10;87.50;;;;;;5048770;28;20097;-77
2024/03/30 00:45:22;;;;;;;3.95;2.40;;;11.10;87.70;;;;;;5058111;28;20017;-76
2024/03/30 00:47:48;;;;;;;5.65;2.10;;;11.10;87.90;;;;;;5058051;28;20139;-76
2024/03/30 00:50:14;;;;;;;4.22;2.38;;;11.10;88.10;;;;;;5047562;28;20518;-77
2024/03/30 00:52:39;;;;;;;3.90;1.92;;;11.10;88.60;;;;;;5047454;28;20701;-76
2024/03/30 00:55:05;;;;;;;5.95;2.50;;;11.10;88.80;;;;;;5055275;28;20048;-77
2024/03/30 00:57:31;;;;;;;4.22;2.33;;;11.00;88.90;;;;;;5054890;28;20140;-76
2024/03/30 00:59:57;;;;;;;8.35;2.92;;;11.10;89.20;;;;;;5057684;28;20012;-76
2024/03/30 01:02:23;;;;;;;9.05;3.35;;;11.00;89.40;;;;;;5056456;28;20031;-77
2024/03/30 01:04:48;;;;;;;5.80;3.00;;;11.00;89.70;;;;;;5056713;28;20042;-75
2024/03/30 01:07:14;;;;;;;7.53;3.33;;;11.00;89.80;;;;;;5056165;28;20044;-75
2024/03/30 01:09:40;;;;;;;8.27;3.67;;;11.00;90.10;;;;;;5056949;28;20051;-76
2024/03/30 01:12:06;;;;;;;6.95;3.25;;;11.00;90.40;;;;;;5053995;28;20044;-77
2024/03/30 01:14:35;;;;;;;7.05;3.15;;;10.90;90.60;;;;;;5055283;28;20035;-76
2024/03/30 01:17:01;;;;;;;8.23;3.83;;;10.80;90.80;;;;;;5050998;28;20097;-76
2024/03/30 01:19:27;;;;;;;17.50;10.95;;;10.90;91.00;;;;;;5055309;28;20023;-75
2024/03/30 01:21:53;;;;;;;14.98;11.25;;;10.80;91.20;;;;;;5056962;28;20036;-77
2024/03/30 01:24:19;;;;;;;9.32;5.18;;;10.80;91.30;;;;;;5056513;28;20023;-77
2024/03/30 01:26:53;;;;;;;7.55;3.90;;;10.80;91.50;;;;;;5038272;28;20634;-77
2024/03/30 01:29:25;;;;;;;6.85;3.33;;;10.80;91.60;;;;;;5057234;28;20020;-78
2024/03/30 01:31:52;;;;;;;9.13;5.88;;;10.70;91.90;;;;;;5055041;28;20041;-78
2024/03/30 01:34:18;;;;;;;9.93;5.90;;;10.70;92.20;;;;;;5056558;28;20020;-76
2024/03/30 01:36:44;;;;;;;7.15;4.20;;;10.70;92.20;;;;;;5055059;28;20025;-76
2024/03/30 01:39:10;;;;;;;8.27;4.40;;;10.60;92.50;;;;;;5056693;28;20023;-77
2024/03/30 01:41:36;;;;;;;8.15;4.18;;;10.60;92.60;;;;;;5057509;28;20071;-77
2024/03/30 01:44:03;;;;;;;8.43;4.05;;;10.60;92.50;;;;;;5055562;28;20654;-77
2024/03/30 01:46:30;;;;;;;7.50;3.67;;;10.60;92.70;;;;;;5055827;28;20048;-77
2024/03/30 01:48:56;;;;;;;7.05;3.88;;;10.60;92.70;;;;;;5057736;28;20025;-76
2024/03/30 01:51:23;;;;;;;6.93;3.83;;;10.60;92.80;;;;;;5056498;28;20039;-75
2024/03/30 01:53:50;;;;;;;6.68;3.70;;;10.60;92.90;;;;;;5056416;28;20040;-76
2024/03/30 01:56:17;;;;;;;6.47;3.75;;;10.60;93.00;;;;;;5057003;28;20037;-77
2024/03/30 01:58:44;;;;;;;6.82;3.70;;;10.60;93.10;;;;;;5059692;28;20036;-77
2024/03/30 02:01:10;;;;;;;8.40;4.10;;;10.60;93.20;;;;;;5056811;28;20036;-76
2024/03/30 02:03:36;;;;;;;6.00;3.15;;;10.60;93.10;;;;;;5057031;28;20085;-77
2024/03/30 02:06:03;;;;;;;8.50;3.42;;;10.60;93.20;;;;;;5054830;28;20048;-76
2024/03/30 02:08:29;;;;;;;7.25;3.67;;;10.60;93.40;;;;;;5056302;28;20017;-76
2024/03/30 02:10:56;;;;;;;5.68;3.17;;;10.50;93.50;;;;;;5044077;28;20033;-77
2024/03/30 02:13:23;;;;;;;5.88;3.42;;;10.50;93.50;;;;;;5056630;28;20108;-77
2024/03/30 02:15:48;;;;;;;5.90;3.00;;;10.50;93.60;;;;;;5054439;28;20052;-76
2024/03/30 02:18:14;;;;;;;7.40;3.80;;;10.50;93.70;;;;;;5050449;28;20065;-76
2024/03/30 02:20:40;;;;;;;6.70;3.83;;;10.50;93.70;;;;;;5051657;28;20434;-76
2024/03/30 02:23:06;;;;;;;7.55;3.95;;;10.50;93.70;;;;;;5056809;28;20101;-76
2024/03/30 02:25:32;;;;;;;6.43;4.35;;;10.60;93.70;;;;;;5050857;28;20033;-75
2024/03/30 02:27:57;;;;;;;6.38;3.88;;;10.60;93.70;;;;;;5052409;28;20033;-75
2024/03/30 02:30:32;;;;;;;7.50;4.28;;;10.50;93.70;;;;;;5051351;28;21542;-74
2024/03/30 02:32:58;;;;;;;7.53;4.90;;;10.50;93.80;;;;;;5045501;28;20029;-76
2024/03/30 02:35:26;;;;;;;7.95;4.75;;;10.50;93.80;;;;;;5056408;28;20146;-76
2024/03/30 02:37:53;;;;;;;6.97;4.80;;;10.50;93.90;;;;;;5041877;28;20032;-74
2024/03/30 02:40:27;;;;;;;7.82;4.93;;;10.50;93.80;;;;;;5056618;28;20032;-76
2024/03/30 02:42:53;;;;;;;8.73;5.30;;;10.50;93.80;;;;;;5054058;28;20036;-73
2024/03/30 02:45:19;;;;;;;8.35;5.65;;;10.50;93.80;;;;;;5054952;28;20025;-75
2024/03/30 02:47:45;;;;;;;8.95;5.93;;;10.50;93.90;;;;;;5051199;28;20127;-75
2024/03/30 02:50:10;;;;;;;8.45;5.40;;;10.50;93.90;;;;;;5040163;28;20017;-76
2024/03/30 02:52:36;;;;;;;7.85;5.10;;;10.50;93.80;;;;;;5056760;28;20386;-75
2024/03/30 02:55:03;;;;;;;9.23;5.47;;;10.50;93.90;;;;;;5059911;28;20034;-75
2024/03/30 02:57:28;;;;;;;9.05;5.82;;;10.50;93.90;;;;;;5050668;28;20500;-75
2024/03/30 02:59:55;;;;;;;10.75;6.05;;;10.50;93.90;;;;;;5060345;28;20112;-76
2024/03/30 03:02:21;;;;;;;8.75;5.60;;;10.40;93.80;;;;;;5058390;28;20056;-75
2024/03/30 03:04:48;;;;;;;9.50;5.80;;;10.50;93.80;;;;;;5059642;28;20140;-76
2024/03/30 03:07:15;;;;;;;8.98;5.88;;;10.50;93.80;;;;;;5051308;28;20040;-76
2024/03/30 03:09:41;;;;;;;9.15;6.03;;;10.50;93.80;;;;;;5060413;28;20025;-74
2024/03/30 03:12:07;;;;;;;8.93;6.40;;;10.50;93.80;;;;;;5058347;28;20595;-75
2024/03/30 03:14:33;;;;;;;9.88;6.47;;;10.50;93.70;;;;;;5059870;28;20021;-74
2024/03/30 03:16:59;;;;;;;8.40;5.50;;;10.40;93.80;;;;;;5056415;28;20040;-77
2024/03/30 03:19:25;;;;;;;10.18;6.70;;;10.40;93.80;;;;;;5057297;28;20854;-76
2024/03/30 03:21:51;;;;;;;9.18;5.82;;;10.40;93.80;;;;;;5058206;28;20107;-77
2024/03/30 03:24:17;;;;;;;11.07;6.65;;;10.40;93.90;;;;;;5056329;28;20413;-78
2024/03/30 03:26:43;;;;;;;9.10;6.47;;;10.30;93.70;;;;;;5051290;28;20602;-76
2024/03/30 03:29:10;;;;;;;9.32;6.20;;;10.40;93.90;;;;;;5050443;28;20024;-76
2024/03/30 03:31:36;;;;;;;8.52;5.93;;;10.40;93.90;;;;;;5055197;28;20050;-77
2024/03/30 03:34:02;;;;;;;9.70;6.63;;;10.40;93.90;;;;;;5053750;28;20500;-76
2024/03/30 03:36:28;;;;;;;10.13;6.88;;;10.40;93.80;;;;;;5057976;28;20063;-76
2024/03/30 03:38:53;;;;;;;11.48;6.95;;;10.30;93.80;;;;;;5052299;28;20041;-75
2024/03/30 03:41:19;;;;;;;11.80;6.60;;;10.40;93.80;;;;;;5056436;28;20113;-76
2024/03/30 03:43:45;;;;;;;12.25;7.05;;;10.40;93.80;;;;;;5057913;28;20771;-75
2024/03/30 03:46:11;;;;;;;9.65;6.50;;;10.40;93.80;;;;;;5055266;28;20063;-73
2024/03/30 03:48:37;;;;;;;9.43;6.05;;;10.40;93.80;;;;;;5057986;28;20033;-73
2024/03/30 03:51:03;;;;;;;9.32;6.60;;;10.30;93.80;;;;;;5050651;28;20392;-77
2024/03/30 03:53:28;;;;;;;11.88;6.75;;;10.40;93.80;;;;;;5056158;28;20064;-76
2024/03/30 03:55:54;;;;;;;9.52;6.22;;;10.40;93.80;;;;;;5053192;28;20021;-76
2024/03/30 03:58:20;;;;;;;9.88;6.65;;;10.40;93.80;;;;;;5057515;28;20051;-76
2024/03/30 04:00:46;;;;;;;9.75;6.65;;;10.40;93.80;;;;;;5057722;28;20035;-76
2024/03/30 04:03:13;;;;;;;9.90;6.72;;;10.30;93.80;;;;;;5059587;28;20067;-76
2024/03/30 04:05:38;;;;;;;9.65;6.38;;;10.30;93.80;;;;;;5057211;28;20044;-77
2024/03/30 04:08:04;;;;;;;11.20;6.95;;;10.30;93.80;;;;;;5049154;28;20037;-77
2024/03/30 04:10:30;;;;;;;9.90;6.63;;;10.30;93.80;;;;;;5058751;28;20660;-77
2024/03/30 04:12:56;;;;;;;10.45;7.10;;;10.40;93.80;;;;;;5049346;28;20040;-76
2024/03/30 04:15:21;;;;;;;10.25;7.38;;;10.30;93.80;;;;;;5057767;28;20047;-76
2024/03/30 04:17:47;;;;;;;10.75;6.10;;;10.40;93.90;;;;;;5057437;28;20220;-77
2024/03/30 04:20:13;;;;;;;10.80;7.32;;;10.40;93.90;;;;;;5051090;28;20025;-76
2024/03/30 04:22:39;;;;;;;9.68;6.38;;;10.30;93.80;;;;;;5057812;28;20792;-77
2024/03/30 04:25:06;;;;;;;10.10;6.90;;;10.30;93.80;;;;;;5058552;28;20077;-76
2024/03/30 04:27:32;;;;;;;9.80;7.03;;;10.20;93.90;;;;;;5057019;28;20703;-76
2024/03/30 04:29:57;;;;;;;11.73;8.13;;;10.30;93.90;;;;;;5058281;28;20012;-76
2024/03/30 04:32:23;;;;;;;9.57;6.88;;;10.20;94.00;;;;;;5055404;28;20039;-75
2024/03/30 04:34:49;;;;;;;10.85;7.80;;;10.30;94.10;;;;;;5052900;28;20032;-75
2024/03/30 04:37:14;;;;;;;10.63;7.25;;;10.30;94.00;;;;;;5048460;28;20033;-75
2024/03/30 04:39:43;;;;;;;10.27;7.00;;;10.30;94.00;;;;;;5054660;28;20029;-74
2024/03/30 04:42:09;;;;;;;9.82;6.72;;;10.30;94.10;;;;;;5055401;28;20123;-73
2024/03/30 04:44:35;;;;;;;9.82;6.50;;;10.20;94.10;;;;;;5040295;28;20033;-76
2024/03/30 04:47:02;;;;;;;9.55;6.35;;;10.20;94.10;;;;;;5054719;28;20392;-76
2024/03/30 04:49:27;;;;;;;8.65;5.93;;;10.30;94.10;;;;;;5049802;28;20044;-76
2024/03/30 04:51:53;;;;;;;8.90;6.10;;;10.20;94.00;;;;;;5056294;28;20058;-77
2024/03/30 04:54:19;;;;;;;10.90;7.03;;;10.20;94.10;;;;;;5055991;28;20032;-76
2024/03/30 04:56:44;;;;;;;8.73;6.10;;;10.20;94.10;;;;;;5057769;28;20648;-77
2024/03/30 04:59:10;;;;;;;9.80;6.30;;;10.10;94.20;;;;;;5055310;28;20024;-77
2024/03/30 05:01:36;;;;;;;10.40;6.50;;;10.10;94.20;;;;;;5054993;28;20036;-75
2024/03/30 05:04:02;;;;;;;11.57;7.22;;;10.10;94.20;;;;;;5058146;28;20021;-76
2024/03/30 05:06:27;;;;;;;10.18;6.63;;;10.10;94.10;;;;;;5042876;28;20080;-76
2024/03/30 05:08:53;;;;;;;9.85;6.60;;;10.10;94.10;;;;;;5052240;28;20036;-76
2024/03/30 05:11:19;;;;;;;11.18;7.70;;;10.20;94.30;;;;;;5049976;28;20035;-76
2024/03/30 05:13:44;;;;;;;12.15;7.20;;;10.10;94.30;;;;;;5057025;28;20616;-75
2024/03/30 05:16:10;;;;;;;11.75;7.57;;;10.10;94.40;;;;;;5057163;28;20081;-76
2024/03/30 05:18:35;;;;;;;9.52;7.10;;;10.10;94.50;;;;;;5057313;28;20032;-76
2024/03/30 05:21:01;;;;;;;11.40;6.88;;;10.10;94.60;;;;;;5054828;28;20037;-76
2024/03/30 05:23:32;;;;;;;11.05;6.93;;;10.20;94.60;;;;;;5050722;28;20416;-76
2024/03/30 05:26:00;;;;;;;10.13;7.07;;;10.20;94.60;;;;;;5056535;28;20697;-76
2024/03/30 05:28:28;;;;;;;10.85;7.50;;;10.20;94.70;;;;;;5055300;28;20021;-77
2024/03/30 05:30:55;;;;;;;11.45;7.50;;;10.20;94.70;;;;;;5058868;28;20418;-76
2024/03/30 05:33:24;;;;;;;11.57;8.02;;;10.20;94.70;;;;;;5038852;28;20266;-76
2024/03/30 05:35:51;;;;;;;10.70;7.45;;;10.20;94.50;;;;;;5054923;28;20020;-76
2024/03/30 05:38:18;;;;;;;10.88;7.30;;;10.20;94.40;;;;;;5055784;28;20055;-76
2024/03/30 05:40:45;;;;;;;11.60;7.82;;;10.20;94.40;;;;;;5056547;28;20736;-76
2024/03/30 05:43:11;;;;;;;11.80;7.97;;;10.20;94.40;;;;;;5054834;28;20181;-76
2024/03/30 05:45:41;;;;;;;10.10;7.95;;;10.20;94.30;;;;;;5051113;28;20782;-75
2024/03/30 05:48:08;;;;;;;12.85;8.40;;;10.20;94.30;;;;;;5050513;28;20086;-77
2024/03/30 05:50:34;;;;;;;12.55;8.70;;;10.10;94.40;;;;;;5053339;28;20109;-76
2024/03/30 05:53:01;;;;;;;12.68;8.00;;;10.10;94.40;;;;;;5056307;28;20029;-76
2024/03/30 05:55:27;;;;;;;12.60;8.32;;;10.10;94.50;;;;;;5056094;28;20073;-77
2024/03/30 05:57:58;;;;;;;13.43;8.93;;;10.10;94.50;;;;;;5054570;28;20165;-76
2024/03/30 06:00:25;;;;;;;11.73;7.95;;;10.10;94.60;;;;;;5041391;28;20103;-75
2024/03/30 06:02:50;;;;;;;12.27;9.25;;;10.10;94.60;;;;;;5056586;28;20032;-76
2024/03/30 06:05:16;;;;;;;12.48;8.07;;;10.10;94.60;;;;;;5058010;28;20017;-76
2024/03/30 06:07:42;;;;;;;12.15;8.32;;;10.10;94.60;;;;;;5051972;28;20041;-76
2024/03/30 06:10:09;;;;;;;11.05;8.38;;;10.10;94.70;;;;;;5053962;28;20385;-75
2024/03/30 06:12:36;;;;;;;13.52;9.00;;;10.20;94.70;;;;;;5056800;28;20037;-78
2024/03/30 06:15:03;;;;;;;13.90;9.77;;;10.20;94.60;;;;;;5051450;28;20116;-77
2024/03/30 06:17:28;;;;;;;17.98;14.35;;;10.20;94.60;;;;;;5054588;28;20032;-76
2024/03/30 06:19:55;;;;;;;16.70;13.68;;;10.20;94.50;;;;;;5058121;28;20016;-78
2024/03/30 06:22:23;;;;;;;15.07;12.10;;;10.10;94.60;;;;;;5036710;28;20063;-76
2024/03/30 06:24:49;;;;;;;12.63;9.60;;;10.20;94.70;;;;;;5057611;28;20360;-76
2024/03/30 06:27:14;;;;;;;12.65;9.07;;;10.20;94.70;;;;;;5053700;28;20140;-76
2024/03/30 06:29:40;;;;;;;12.65;9.40;;;10.20;94.80;;;;;;5059014;28;20024;-76
2024/03/30 06:32:06;;;;;;;12.52;9.38;;;10.20;94.90;;;;;;5059560;28;20079;-76
2024/03/30 06:34:32;;;;;;;12.52;9.18;;;10.30;94.90;;;;;;5056049;28;20071;-77
2024/03/30 06:36:58;;;;;;;13.00;9.13;;;10.30;94.70;;;;;;5059095;28;20454;-79
2024/03/30 06:39:24;;;;;;;13.43;10.65;;;10.30;94.70;;;;;;5060338;28;20020;-75
2024/03/30 06:44:34;;;;;;;12.88;9.55;;;10.40;94.70;;;;;;5052380;28;20396;-78
2024/03/30 06:47:00;;;;;;;11.50;9.02;;;10.50;94.60;;;;;;5057802;28;20037;-75
2024/03/30 06:49:25;;;;;;;12.57;9.35;;;10.40;94.40;;;;;;5057189;28;20100;-75
2024/03/30 06:51:51;;;;;;;13.10;10.18;;;10.40;94.40;;;;;;5056206;28;20063;-81
2024/03/30 06:54:17;;;;;;;14.35;10.15;;;10.50;94.30;;;;;;5057931;28;20764;-84
2024/03/30 06:56:42;;;;;;;13.48;10.00;;;10.50;94.20;;;;;;5060395;28;20434;-83
2024/03/30 06:59:08;;;;;;;15.18;11.35;;;10.50;94.20;;;;;;5069900;28;20024;-83
2024/03/30 07:01:34;;;;;;;13.52;10.85;;;10.40;93.90;;;;;;5057899;28;20029;-81
2024/03/30 07:04:01;;;;;;;14.13;10.27;;;10.40;93.90;;;;;;5060375;28;20456;-81
2024/03/30 07:06:27;;;;;;;15.57;12.48;;;10.30;93.80;;;;;;5053934;28;20615;-78
2024/03/30 07:08:59;;;;;;;14.63;11.25;;;10.30;93.90;;;;;;5057014;28;20032;-84
2024/03/30 07:11:25;;;;;;;16.92;12.73;;;10.30;94.00;;;;;;5050840;28;20474;-82
2024/03/30 07:13:51;;;;;;;18.10;13.82;;;10.30;94.20;;;;;;5052919;28;20131;-79
2024/03/30 07:16:17;;;;;;;17.00;13.32;;;10.40;94.10;;;;;;5058126;28;20464;-81
2024/03/30 07:18:46;;;;;;;19.30;13.25;;;10.30;94.10;;;;;;5051688;28;20038;-80
2024/03/30 07:21:11;;;;;;;16.95;12.00;;;10.40;94.30;;;;;;5057215;28;20036;-83
2024/03/30 07:23:37;;;;;;;15.57;11.27;;;10.40;94.20;;;;;;5058128;28;20055;-85
2024/03/30 07:26:06;;;;;;;13.43;10.25;;;10.20;93.90;;;;;;5050290;28;20032;-78
2024/03/30 07:28:32;;;;;;;15.30;10.95;;;10.20;94.10;;;;;;5059971;28;20052;-78
2024/03/30 07:31:05;;;;;;;15.68;11.18;;;10.30;94.20;;;;;;5058143;28;20060;-81
2024/03/30 07:33:31;;;;;;;14.77;11.10;;;10.30;94.10;;;;;;5058510;28;20077;-80
2024/03/30 07:35:58;;;;;;;14.40;11.82;;;10.20;93.90;;;;;;5056303;28;20048;-80
2024/03/30 07:38:32;;;;;;;15.23;10.75;;;10.20;93.90;;;;;;5057605;28;20032;-79
2024/03/30 07:40:58;;;;;;;;;;;10.20;94.10;;;;;;5058585;28;20032;-80
2024/03/30 07:43:24;;;;;;;15.65;11.60;;;10.10;94.10;;;;;;5056992;28;19913;-80
2024/03/30 07:45:50;;;;;;;14.15;10.82;;;10.10;94.10;;;;;;5051284;28;20709;-81
2024/03/30 07:48:16;;;;;;;12.70;10.55;;;10.20;94.20;;;;;;5057835;28;20041;-81
2024/03/30 07:50:41;;;;;;;13.38;9.10;;;10.10;94.20;;;;;;5057533;28;20052;-82
2024/03/30 07:53:07;;;;;;;10.85;8.35;;;10.20;94.30;;;;;;5054890;28;20031;-82
2024/03/30 07:55:33;;;;;;;10.13;7.25;;;10.20;94.10;;;;;;5058220;28;20028;-82
2024/03/30 07:57:59;;;;;;;10.98;6.32;;;10.10;94.10;;;;;;5055561;28;20044;-82
2024/03/30 08:00:25;;;;;;;9.10;5.82;;;10.10;94.10;;;;;;5058370;28;20024;-80
2024/03/30 08:02:51;;;;;;;9.25;6.18;;;10.00;93.90;;;;;;5056176;28;20060;-80
2024/03/30 08:05:18;;;;;;;8.63;5.28;;;10.10;94.10;;;;;;5055762;28;20052;-82
2024/03/30 08:07:43;;;;;;;8.77;5.75;;;10.10;94.00;;;;;;5053258;28;20155;-82
2024/03/30 08:10:09;;;;;;;8.45;5.43;;;10.00;93.70;;;;;;5068831;28;20016;-77
2024/03/30 08:12:35;;;;;;;9.00;5.68;;;10.00;94.00;;;;;;5034663;28;20025;-78
2024/03/30 08:15:01;;;;;;;12.25;7.82;;;10.10;94.10;;;;;;5063756;28;20727;-77
2024/03/30 08:17:26;;;;;;;15.45;10.10;;;10.10;94.10;;;;;;5051094;28;20683;-77
2024/03/30 08:19:52;;;;;;;11.57;6.80;;;10.10;94.10;;;;;;5051399;28;20077;-79
2024/03/30 08:22:17;;;;;;;10.23;5.28;;;10.20;94.00;;;;;;5052761;28;20044;-77
2024/03/30 08:24:43;;;;;;;8.73;5.47;;;10.10;93.90;;;;;;5054836;28;20043;-78
2024/03/30 08:27:09;;;;;;;8.95;5.45;;;10.10;93.80;;;;;;5056670;28;20040;-78
2024/03/30 08:29:34;;;;;;;9.43;5.82;;;10.10;94.00;;;;;;5060065;28;20133;-79
2024/03/30 08:32:00;;;;;;;9.40;5.75;;;10.10;93.90;;;;;;5050001;28;20020;-78
2024/03/30 08:34:25;;;;;;;8.30;5.65;;;10.00;94.00;;;;;;5051939;28;20059;-78
2024/03/30 08:36:51;;;;;;;8.93;5.40;;;9.90;94.30;;;;;;5055670;28;20036;-78
2024/03/30 08:39:17;;;;;;;9.55;6.10;;;10.00;94.30;;;;;;5050213;28;20685;-77
2024/03/30 08:41:42;;;;;;;11.32;5.93;;;10.10;94.20;;;;;;5043143;28;20134;-76
2024/03/30 08:44:08;;;;;;;10.13;5.90;;;10.10;94.20;;;;;;5056880;28;20020;-77
2024/03/30 08:46:34;;;;;;;8.07;5.80;;;10.10;94.20;;;;;;5059409;28;20048;-77
2024/03/30 08:49:03;;;;;;;9.93;6.22;;;10.10;94.30;;;;;;5053390;28;20719;-77
2024/03/30 08:51:29;;;;;;;7.80;5.72;;;10.10;94.40;;;;;;5054905;28;20095;-77
2024/03/30 08:54:07;;;;;;;9.35;6.65;;;10.20;94.50;;;;;;5055138;28;20041;-77
2024/03/30 08:56:33;;;;;;;9.30;6.53;;;10.20;94.40;;;;;;5056498;28;20040;-78
2024/03/30 08:58:59;;;;;;;8.95;6.65;;;10.20;94.40;;;;;;5055664;28;20108;-77
2024/03/30 09:01:25;;;;;;;8.85;6.10;;;10.30;94.40;;;;;;5054831;28;20047;-77
2024/03/30 09:03:51;;;;;;;9.25;5.88;;;10.20;94.30;;;;;;5054924;28;20117;-77
2024/03/30 09:06:17;;;;;;;8.65;5.88;;;10.30;94.20;;;;;;5053924;28;20036;-77
2024/03/30 09:08:44;;;;;;;9.45;6.18;;;10.40;94.50;;;;;;5053006;28;20057;-77
2024/03/30 09:11:10;;;;;;;8.68;5.07;;;10.50;94.40;;;;;;5052292;28;20064;-76
2024/03/30 09:13:37;;;;;;;7.93;5.05;;;10.50;93.90;;;;;;5049949;28;20052;-76
2024/03/30 09:16:02;;;;;;;9.95;5.63;;;10.60;93.90;;;;;;5054791;28;20066;-76
2024/03/30 09:18:29;;;;;;;8.13;5.20;;;10.60;93.80;;;;;;5054564;28;20086;-77
2024/03/30 09:20:55;;;;;;;8.13;5.13;;;10.70;93.80;;;;;;5041382;28;21073;-76
2024/03/30 09:23:21;;;;;;;8.70;5.88;;;10.60;93.40;;;;;;5051047;28;20376;-74
2024/03/30 09:25:47;;;;;;;9.10;5.40;;;10.70;93.70;;;;;;5051058;28;20378;-74
2024/03/30 09:28:12;;;;;;;9.70;5.78;;;10.80;93.40;;;;;;5052536;28;20036;-74
2024/03/30 09:30:38;;;;;;;7.88;4.97;;;10.80;93.30;;;;;;5053947;28;20061;-74
2024/03/30 09:33:04;;;;;;;8.43;6.30;;;10.80;93.10;;;;;;5054126;28;20600;-74
2024/03/30 09:35:30;;;;;;;8.23;4.97;;;10.80;93.20;;;;;;5054028;28;20102;-74
2024/03/30 09:37:55;;;;;;;7.82;4.90;;;10.70;93.10;;;;;;5056284;28;20036;-76
2024/03/30 09:40:21;;;;;;;7.22;4.85;;;10.70;93.00;;;;;;5056155;28;20023;-76
2024/03/30 09:42:49;;;;;;;9.45;5.85;;;10.70;93.30;;;;;;5059998;28;20124;-76
2024/03/30 09:45:15;;;;;;;7.72;5.03;;;10.60;93.20;;;;;;5045525;28;20342;-76
2024/03/30 09:47:42;;;;;;;7.78;5.38;;;10.60;93.10;;;;;;5054619;28;20044;-76
2024/03/30 09:50:12;;;;;;;9.13;5.88;;;10.60;93.50;;;;;;5057191;28;20028;-76
2024/03/30 09:52:39;;;;;;;7.65;5.50;;;10.60;93.70;;;;;;5054041;28;20091;-76
2024/03/30 09:55:14;;;;;;;10.15;6.10;;;10.70;93.80;;;;;;5063193;28;20013;-77
2024/03/30 09:57:43;;;;;;;8.77;5.97;;;10.80;93.80;;;;;;5055879;28;20032;-76
2024/03/30 10:00:11;;;;;;;9.38;6.78;;;10.90;93.90;;;;;;5047058;28;20012;-78
2024/03/30 10:02:37;;;;;;;11.27;7.00;;;10.90;93.70;;;;;;5058030;28;20085;-76
2024/03/30 10:05:03;;;;;;;11.95;8.02;;;10.80;93.50;;;;;;5056270;28;20032;-76
2024/03/30 10:07:51;;;;;;;14.20;9.70;;;10.80;93.50;;;;;;5056077;28;20052;-76
2024/03/30 10:10:18;;;;;;;16.70;11.95;;;10.80;93.60;;;;;;5061657;28;20025;-78
2024/03/30 10:13:04;;;;;;;15.23;12.45;;;10.80;93.40;;;;;;5056396;28;20135;-78
2024/03/30 10:15:52;;;;;;;16.15;12.30;;;10.80;93.20;;;;;;5058958;28;20028;-79
2024/03/30 10:18:18;;;;;;;16.77;11.75;;;10.90;93.40;;;;;;5056790;28;20119;-77
2024/03/30 10:20:44;;;;;;;13.07;9.55;;;11.00;93.30;;;;;;5046299;28;20368;-79
2024/03/30 10:23:10;;;;;;;14.30;10.75;;;11.00;93.20;;;;;;5061070;28;20044;-78
2024/03/30 10:25:36;;;;;;;14.45;11.57;;;11.00;93.00;;;;;;5058223;28;20052;-77
2024/03/30 10:28:02;;;;;;;15.00;11.27;;;11.00;93.10;;;;;;5056801;28;20126;-77
2024/03/30 10:30:28;;;;;;;16.67;11.82;;;11.10;93.30;;;;;;5056049;28;20048;-78
2024/03/30 10:32:54;;;;;;;13.40;10.38;;;11.20;93.20;;;;;;5061755;28;20044;-76
2024/03/30 10:35:21;;;;;;;13.68;10.07;;;11.10;92.90;;;;;;5058614;28;20043;-75
2024/03/30 10:37:51;;;;;;;13.45;9.15;;;11.10;93.00;;;;;;5056531;28;20039;-77
2024/03/30 10:40:17;;;;;;;11.85;8.77;;;11.20;92.90;;;;;;5059590;28;20068;-76
2024/03/30 10:42:43;;;;;;;9.98;7.28;;;11.30;92.80;;;;;;5050800;28;20489;-77
2024/03/30 10:45:09;;;;;;;10.20;7.10;;;11.30;92.60;;;;;;5058983;28;20036;-78
2024/03/30 10:47:37;;;;;;;12.40;8.57;;;11.30;92.40;;;;;;5059379;28;20158;-77
2024/03/30 10:50:04;;;;;;;14.02;8.90;;;11.30;92.40;;;;;;5059144;28;20481;-76
2024/03/30 10:52:30;;;;;;;12.13;9.32;;;11.40;92.10;;;;;;5049945;28;20086;-77
2024/03/30 10:54:57;;;;;;;14.45;10.38;;;11.30;92.30;;;;;;5061247;28;20107;-77
2024/03/30 10:57:24;;;;;;;14.55;10.32;;;11.30;92.40;;;;;;5054862;28;20213;-77
2024/03/30 10:59:50;;;;;;;12.65;9.00;;;11.30;92.40;;;;;;5060066;28;20100;-76
2024/03/30 11:02:17;;;;;;;9.63;5.78;;;11.30;92.40;;;;;;5065161;28;20055;-77
2024/03/30 11:04:46;;;;;;;8.63;5.28;;;11.30;92.10;;;;;;5059905;28;20456;-76
2024/03/30 11:07:13;;;;;;;9.25;6.85;;;11.20;92.10;;;;;;5061375;28;20515;-75
2024/03/30 11:09:43;;;;;;;11.55;7.30;;;11.10;92.30;;;;;;5049307;28;20073;-77
2024/03/30 11:12:10;;;;;;;18.75;13.68;;;11.10;92.00;;;;;;5040682;28;20029;-77
2024/03/30 11:14:36;;;;;;;17.70;13.35;;;11.00;92.00;;;;;;5060197;28;20089;-75
2024/03/30 11:17:27;;;;;;;18.83;10.43;;;10.90;92.30;;;;;;5057659;28;20040;-76
2024/03/30 11:20:04;;;;;;;12.13;7.80;;;10.80;92.50;;;;;;5060149;28;20044;-77
2024/03/30 11:22:49;;;;;;;10.82;6.43;;;10.80;92.60;;;;;;5057707;28;20140;-75
2024/03/30 11:25:20;;;;;;;9.18;6.22;;;10.80;92.60;;;;;;5057979;28;20048;-76
2024/03/30 11:27:50;;;;;;;8.20;5.57;;;10.90;92.80;;;;;;5035409;28;20033;-76
2024/03/30 11:30:32;;;;;;;9.68;6.60;;;11.00;92.80;;;;;;5054349;28;20033;-76
2024/03/30 11:33:08;;;;;;;8.85;5.72;;;11.10;92.80;;;;;;5052118;28;20035;-76
2024/03/30 11:36:00;;;;;;;8.73;6.00;;;11.20;92.40;;;;;;5057788;28;20108;-75
2024/03/30 11:38:30;;;;;;;6.95;4.00;;;11.30;91.90;;;;;;5044840;28;20817;-75
2024/03/30 11:41:06;;;;;;;7.72;4.57;;;11.40;92.10;;;;;;5046927;28;20024;-75
2024/03/30 11:44:01;;;;;;;8.23;4.35;;;11.30;91.80;;;;;;5056270;28;20055;-78
2024/03/30 11:46:27;;;;;;;7.07;4.28;;;11.40;91.80;;;;;;5058461;28;20094;-77
2024/03/30 11:48:53;;;;;;;7.05;4.10;;;11.50;91.80;;;;;;5037108;28;20041;-76
2024/03/30 11:51:20;;;;;;;7.93;4.68;;;11.50;91.60;;;;;;5058975;28;20111;-75
2024/03/30 11:53:46;;;;;;;6.63;4.45;;;11.50;91.80;;;;;;5054235;28;20097;-75
2024/03/30 11:56:12;;;;;;;5.93;3.97;;;11.70;92.00;;;;;;5039369;28;20024;-78
2024/03/30 11:58:41;;;;;;;6.53;3.38;;;11.80;91.50;;;;;;5058449;28;20024;-78
2024/03/30 12:01:09;;;;;;;7.32;3.85;;;11.70;90.30;;;;;;5057319;28;20029;-78
2024/03/30 12:03:36;;;;;;;6.75;3.90;;;11.60;90.40;;;;;;5057780;28;20063;-75
2024/03/30 12:06:03;;;;;;;8.02;5.05;;;11.60;90.60;;;;;;5039385;28;20175;-76
2024/03/30 12:08:29;;;;;;;10.25;5.88;;;11.60;90.30;;;;;;5057185;28;20411;-77
2024/03/30 12:11:04;;;;;;;9.93;6.68;;;11.50;90.40;;;;;;5055921;28;20051;-77
2024/03/30 12:13:39;;;;;;;9.68;6.60;;;11.40;90.50;;;;;;5056953;28;20032;-76
2024/03/30 12:16:06;;;;;;;9.68;5.78;;;11.40;90.90;;;;;;5036638;28;20611;-76
2024/03/30 12:18:32;;;;;;;9.63;5.05;;;11.40;91.00;;;;;;5054276;28;20178;-77
2024/03/30 12:20:58;;;;;;;7.93;4.72;;;11.60;91.50;;;;;;5047686;28;20090;-76
2024/03/30 12:23:24;;;;;;;6.68;4.10;;;11.90;91.60;;;;;;5052201;28;20813;-76
2024/03/30 12:25:51;;;;;;;5.60;3.00;;;12.10;90.80;;;;;;5050139;28;20045;-76
2024/03/30 12:28:18;;;;;;;6.85;3.20;;;12.10;90.00;;;;;;5067417;28;20032;-76
2024/03/30 12:30:46;;;;;;;7.55;3.22;;;12.40;90.20;;;;;;5055838;28;20017;-76
2024/03/30 12:33:12;;;;;;;7.10;3.35;;;12.50;89.70;;;;;;5054465;28;20036;-75
2024/03/30 12:35:39;;;;;;;5.85;3.75;;;12.50;89.10;;;;;;5057445;28;20013;-75
2024/03/30 12:38:06;;;;;;;6.43;3.58;;;12.70;89.40;;;;;;5054720;28;20021;-75
2024/03/30 12:40:33;;;;;;;6.57;3.85;;;12.70;88.20;;;;;;5051463;28;20392;-75
2024/03/30 12:43:02;;;;;;;6.55;3.67;;;12.70;88.50;;;;;;5051280;28;20031;-74